Shaw, Minnesota
Current Conditions -  °F | °C
As of 8:55 PM on Monday 20 Oct 2014 (Local Time) from KDLH Reporting Station
Overcast Overcast  
Wind Chill: 44°   Ceiling: 2500
Heat Index: 46°   Visibility: 10mi
Dew Point: 36°   Wind: 5mph
Humidity: 68%   Direction: 30°NNE
Pressure: 30.08"   Gusts: NA
Location:  47.068°N, 92.4547°W
Report Text: KDLH 210155Z 03004KT 10SM OVC025 08/02 A3008 RMK AO2 SLP199 T00780022
Loading
Personal Weather Stations






























Interactive Weather Map
Tropical Storm Tracking
New forecast layout! Learn more

10-Day Weather Forecast

Advertisements
Track Severe Weather on mobile